createdAt,value
2023-03-29T00:00:35.353Z,2278.00
2023-03-29T00:01:36.500Z,2277.00
2023-03-29T00:02:35.398Z,2274.00
2023-03-29T00:03:35.393Z,2270.00
2023-03-29T00:04:35.389Z,2268.00
2023-03-29T00:05:35.349Z,2267.00
2023-03-29T00:06:35.284Z,2264.00
2023-03-29T00:07:35.313Z,2262.00
2023-03-29T00:08:35.284Z,2261.00
2023-03-29T00:09:35.250Z,2262.00
2023-03-29T00:10:35.246Z,2260.00
2023-03-29T00:11:35.239Z,2262.00
2023-03-29T00:12:35.218Z,2262.00
2023-03-29T00:13:35.214Z,2258.00
2023-03-29T00:14:35.207Z,2259.00
2023-03-29T00:15:35.195Z,2262.00
2023-03-29T00:16:35.208Z,2258.00
2023-03-29T00:17:35.212Z,2261.00
2023-03-29T00:18:35.179Z,2256.00
2023-03-29T00:19:35.167Z,2256.00
2023-03-29T00:20:35.179Z,2252.00
2023-03-29T00:21:35.160Z,2248.00
2023-03-29T00:22:35.154Z,2246.00
2023-03-29T00:23:35.153Z,2243.00
2023-03-29T00:24:35.144Z,2243.00
2023-03-29T00:25:35.151Z,2237.00
2023-03-29T00:26:35.127Z,2234.00
2023-03-29T00:27:35.120Z,2230.00
2023-03-29T00:28:35.151Z,2224.00
2023-03-29T00:29:35.102Z,2223.00
2023-03-29T00:30:35.107Z,2225.00
2023-03-29T00:31:35.146Z,2228.00
2023-03-29T00:32:35.149Z,2228.00
2023-03-29T00:33:35.090Z,2229.00
2023-03-29T00:34:35.073Z,2226.00
2023-03-29T00:35:35.197Z,2227.00
2023-03-29T00:36:35.059Z,2229.00
2023-03-29T00:37:35.050Z,2229.00
2023-03-29T00:38:35.042Z,2229.00
2023-03-29T00:39:35.036Z,2233.00
2023-03-29T00:40:35.032Z,2231.00
2023-03-29T00:41:35.020Z,2227.00
2023-03-29T00:42:35.019Z,2229.00
2023-03-29T00:43:35.010Z,2229.00
2023-03-29T00:44:35.008Z,2226.00
2023-03-29T00:45:34.999Z,2220.00
2023-03-29T00:46:35.210Z,2214.00
2023-03-29T00:47:35.037Z,2215.00
2023-03-29T00:48:34.972Z,2210.00
2023-03-29T00:49:34.960Z,2212.00
2023-03-29T00:50:34.954Z,2210.00
2023-03-29T00:51:34.949Z,2207.00
2023-03-29T00:52:34.947Z,2208.00
2023-03-29T00:53:34.936Z,2206.00
2023-03-29T00:54:34.925Z,2203.00
2023-03-29T00:55:34.911Z,2199.00
2023-03-29T00:56:34.918Z,2195.00
2023-03-29T00:57:34.907Z,2200.00
2023-03-29T00:58:34.911Z,2197.00
2023-03-29T00:59:34.910Z,2200.00
2023-03-29T01:00:34.892Z,2198.00
2023-03-29T01:01:34.928Z,2197.00
2023-03-29T01:02:35.116Z,2198.00
2023-03-29T01:03:34.957Z,2192.00
2023-03-29T01:04:34.889Z,2188.00
2023-03-29T01:05:34.882Z,2185.00
2023-03-29T01:06:34.890Z,2182.00
2023-03-29T01:07:34.876Z,2181.00
2023-03-29T01:08:34.881Z,2181.00
2023-03-29T01:09:34.884Z,2179.00
2023-03-29T01:10:34.860Z,2178.00
2023-03-29T01:11:34.866Z,2176.00
2023-03-29T01:12:34.872Z,2171.00
2023-03-29T01:13:34.864Z,2172.00
2023-03-29T01:14:34.866Z,2175.00
2023-03-29T01:15:34.875Z,2172.00
2023-03-29T01:16:34.944Z,2174.00
2023-03-29T01:17:34.927Z,2176.00
2023-03-29T01:18:34.855Z,2177.00
2023-03-29T01:19:34.850Z,2177.00
2023-03-29T01:20:34.854Z,2179.00
2023-03-29T01:21:34.852Z,2176.00
2023-03-29T01:22:34.857Z,2174.00
2023-03-29T01:23:34.847Z,2177.00
2023-03-29T01:24:34.841Z,2177.00
2023-03-29T01:25:34.839Z,2174.00
2023-03-29T01:26:34.836Z,2170.00
2023-03-29T01:27:34.835Z,2166.00
2023-03-29T01:28:34.825Z,2166.00
2023-03-29T01:29:34.820Z,2165.00
2023-03-29T01:30:34.820Z,2162.00
2023-03-29T01:31:34.836Z,2161.00
2023-03-29T01:32:34.926Z,2160.00
2023-03-29T01:33:34.808Z,2157.00
2023-03-29T01:34:34.813Z,2156.00
2023-03-29T01:35:34.834Z,2158.00
2023-03-29T01:36:34.800Z,2157.00
2023-03-29T01:37:34.786Z,2155.00
2023-03-29T01:38:34.796Z,2153.00
2023-03-29T01:39:34.792Z,2155.00
2023-03-29T01:40:34.801Z,2154.00
2023-03-29T01:41:34.797Z,2154.00
2023-03-29T01:42:34.828Z,2154.00
2023-03-29T01:43:34.799Z,2155.00
2023-03-29T01:44:34.789Z,2153.00
2023-03-29T01:45:34.775Z,2152.00
2023-03-29T01:46:34.842Z,2149.00
2023-03-29T01:47:34.788Z,2147.00
2023-03-29T01:48:34.746Z,2146.00
2023-03-29T01:49:34.733Z,2147.00
2023-03-29T01:50:34.738Z,2144.00
2023-03-29T01:51:34.717Z,2140.00
2023-03-29T01:52:34.728Z,2140.00
2023-03-29T01:53:34.718Z,2140.00
2023-03-29T01:54:34.707Z,2136.00
2023-03-29T01:55:34.699Z,2136.00
2023-03-29T01:56:34.701Z,2141.00
2023-03-29T01:57:34.699Z,2143.00
2023-03-29T01:58:34.717Z,2142.00
2023-03-29T01:59:34.700Z,2139.00
2023-03-29T02:00:34.703Z,2136.00
2023-03-29T02:01:34.749Z,2130.00
2023-03-29T02:02:34.772Z,2129.00
2023-03-29T02:03:34.784Z,2128.00
2023-03-29T02:04:34.749Z,2128.00
2023-03-29T02:05:34.690Z,2125.00
2023-03-29T02:06:34.702Z,2124.00
2023-03-29T02:07:34.688Z,2125.00
2023-03-29T02:08:34.680Z,2124.00
2023-03-29T02:09:34.677Z,2122.00
2023-03-29T02:10:34.665Z,2119.00
2023-03-29T02:11:34.668Z,2118.00
2023-03-29T02:12:34.667Z,2117.00
2023-03-29T02:13:34.659Z,2116.00
2023-03-29T02:14:34.668Z,2112.00
2023-03-29T02:15:34.705Z,2112.00
2023-03-29T02:16:34.665Z,2114.00
2023-03-29T02:17:34.708Z,2114.00
2023-03-29T02:18:34.656Z,2117.00
2023-03-29T02:19:34.687Z,2116.00
2023-03-29T02:20:34.649Z,2114.00
2023-03-29T02:21:34.641Z,2111.00
2023-03-29T02:22:34.644Z,2111.00
2023-03-29T02:23:34.634Z,2107.00
2023-03-29T02:24:34.624Z,2105.00
2023-03-29T02:25:34.611Z,2103.00
2023-03-29T02:26:34.604Z,2100.00
2023-03-29T02:27:34.609Z,2101.00
2023-03-29T02:28:34.602Z,2100.00
2023-03-29T02:29:34.596Z,2099.00
2023-03-29T02:30:34.603Z,2101.00
2023-03-29T02:31:34.627Z,2098.00
2023-03-29T02:32:34.622Z,2097.00
2023-03-29T02:33:34.571Z,2094.00
2023-03-29T02:34:34.556Z,2094.00
2023-03-29T02:35:34.671Z,2089.00
2023-03-29T02:36:34.545Z,2087.00
2023-03-29T02:37:34.544Z,2085.00
2023-03-29T02:38:34.535Z,2085.00
2023-03-29T02:39:34.522Z,2085.00
2023-03-29T02:40:34.527Z,2085.00
2023-03-29T02:41:34.524Z,2084.00
2023-03-29T02:42:34.524Z,2083.00
2023-03-29T02:43:34.513Z,2078.00
2023-03-29T02:44:34.506Z,2079.00
2023-03-29T02:45:34.501Z,2080.00
2023-03-29T02:46:34.542Z,2077.00
2023-03-29T02:47:34.596Z,2075.00
2023-03-29T02:48:34.502Z,2078.00
2023-03-29T02:49:34.493Z,2078.00
2023-03-29T02:50:34.487Z,2077.00
2023-03-29T02:51:34.474Z,2074.00
2023-03-29T02:52:34.470Z,2077.00
2023-03-29T02:53:34.460Z,2076.00
2023-03-29T02:54:34.444Z,2080.00
2023-03-29T02:55:34.480Z,2082.00
2023-03-29T02:56:34.425Z,2082.00
2023-03-29T02:57:34.424Z,2079.00
2023-03-29T02:58:34.415Z,2077.00
2023-03-29T02:59:34.409Z,2079.00
2023-03-29T03:00:34.399Z,2077.00
2023-03-29T03:01:34.414Z,2075.00
2023-03-29T03:02:34.421Z,2072.00
2023-03-29T03:03:34.452Z,2073.00
2023-03-29T03:04:34.368Z,2072.00
2023-03-29T03:05:34.361Z,2070.00
2023-03-29T03:06:34.359Z,2069.00
2023-03-29T03:07:34.352Z,2069.00
2023-03-29T03:08:34.348Z,2064.00
2023-03-29T03:09:34.334Z,2062.00
2023-03-29T03:10:34.322Z,2059.00
2023-03-29T03:11:34.320Z,2060.00
2023-03-29T03:12:34.320Z,2056.00
2023-03-29T03:13:34.327Z,2052.00
2023-03-29T03:14:34.310Z,2049.00
2023-03-29T03:15:34.293Z,2047.00
2023-03-29T03:16:34.357Z,2048.00
2023-03-29T03:17:34.326Z,2048.00
2023-03-29T03:18:34.365Z,2043.00
2023-03-29T03:19:34.291Z,2044.00
2023-03-29T03:20:34.282Z,2043.00
2023-03-29T03:21:34.263Z,2045.00
2023-03-29T03:22:34.258Z,2043.00
2023-03-29T03:23:34.250Z,2041.00
2023-03-29T03:24:34.286Z,2038.00
2023-03-29T03:25:34.243Z,2036.00
2023-03-29T03:26:34.243Z,2031.00
2023-03-29T03:27:34.318Z,2029.00
2023-03-29T03:28:34.254Z,2028.00
2023-03-29T03:29:34.217Z,2024.00
2023-03-29T03:30:34.227Z,2022.00
2023-03-29T03:31:34.241Z,2019.00
2023-03-29T03:32:34.291Z,2017.00
2023-03-29T03:33:34.561Z,2019.00
2023-03-29T03:34:34.205Z,2020.00
2023-03-29T03:35:34.221Z,2019.00
2023-03-29T03:36:34.180Z,2019.00
2023-03-29T03:37:34.186Z,2020.00
2023-03-29T03:38:34.193Z,2018.00
2023-03-29T03:39:34.273Z,2014.00
2023-03-29T03:40:34.194Z,2013.00
2023-03-29T03:41:34.166Z,2009.00
2023-03-29T03:42:34.157Z,2008.00
2023-03-29T03:43:34.202Z,2011.00
2023-03-29T03:44:34.147Z,2012.00
2023-03-29T03:45:34.197Z,2013.00
2023-03-29T03:46:34.144Z,2010.00
2023-03-29T03:47:34.144Z,2013.00
2023-03-29T03:48:34.139Z,2010.00
2023-03-29T03:49:34.142Z,2005.00
2023-03-29T03:50:34.120Z,2006.00
2023-03-29T03:51:34.119Z,2010.00
2023-03-29T03:52:34.114Z,2006.00
2023-03-29T03:53:34.098Z,2003.00
2023-03-29T03:54:34.099Z,2002.00
2023-03-29T03:55:34.089Z,2002.00
2023-03-29T03:56:34.079Z,2000.00
2023-03-29T03:57:34.078Z,1997.00
2023-03-29T03:58:34.066Z,1997.00
2023-03-29T03:59:34.109Z,2000.00
2023-03-29T04:00:34.078Z,1996.00
2023-03-29T04:01:34.093Z,1994.00
2023-03-29T04:02:34.116Z,1991.00
2023-03-29T04:03:34.649Z,1993.00
2023-03-29T04:04:34.227Z,1992.00
2023-03-29T04:05:34.059Z,1992.00
2023-03-29T04:06:34.076Z,1989.00
2023-03-29T04:07:34.071Z,1990.00
2023-03-29T04:08:34.066Z,1989.00
2023-03-29T04:09:34.059Z,1985.00
2023-03-29T04:10:34.049Z,1983.00
2023-03-29T04:11:34.046Z,1982.00
2023-03-29T04:12:34.029Z,1980.00
2023-03-29T04:13:34.024Z,1978.00
2023-03-29T04:14:34.018Z,1975.00
2023-03-29T04:15:34.110Z,1970.00
2023-03-29T04:16:34.012Z,1965.00
2023-03-29T04:17:34.230Z,1966.00
2023-03-29T04:18:34.067Z,1965.00
2023-03-29T04:19:34.005Z,1960.00
2023-03-29T04:20:33.997Z,1958.00
2023-03-29T04:21:34.004Z,1960.00
2023-03-29T04:22:33.995Z,1958.00
2023-03-29T04:23:34.002Z,1962.00
2023-03-29T04:24:33.988Z,1966.00
2023-03-29T04:25:33.982Z,1969.00
2023-03-29T04:26:33.969Z,1969.00
2023-03-29T04:27:33.968Z,1967.00
2023-03-29T04:28:33.978Z,1966.00
2023-03-29T04:29:33.969Z,1967.00
2023-03-29T04:30:33.967Z,1961.00
2023-03-29T04:31:33.991Z,1960.00
2023-03-29T04:32:33.978Z,1957.00
2023-03-29T04:33:33.960Z,1956.00
2023-03-29T04:34:33.955Z,1953.00
2023-03-29T04:35:34.014Z,1950.00
2023-03-29T04:36:33.944Z,1951.00
2023-03-29T04:37:33.944Z,1950.00
2023-03-29T04:38:33.941Z,1951.00
2023-03-29T04:39:34.065Z,1953.00
2023-03-29T04:40:33.941Z,1953.00
2023-03-29T04:41:33.934Z,1951.00
2023-03-29T04:42:33.920Z,1951.00
2023-03-29T04:43:33.908Z,1950.00
2023-03-29T04:44:34.008Z,1946.00
2023-03-29T04:45:33.914Z,1943.00
2023-03-29T04:46:34.001Z,1943.00
2023-03-29T04:47:33.959Z,1937.00
2023-03-29T04:48:33.906Z,1937.00
2023-03-29T04:49:33.920Z,1930.00
2023-03-29T04:50:33.906Z,1930.00
2023-03-29T04:51:33.897Z,1930.00
2023-03-29T04:52:33.908Z,1931.00
2023-03-29T04:53:33.909Z,1929.00
2023-03-29T04:54:33.905Z,1928.00
2023-03-29T04:55:33.893Z,1925.00
2023-03-29T04:56:33.891Z,1924.00
2023-03-29T04:57:33.884Z,1921.00
2023-03-29T04:58:33.883Z,1923.00
2023-03-29T04:59:33.897Z,1922.00
2023-03-29T05:00:33.883Z,1920.00
2023-03-29T05:01:33.938Z,1914.00
2023-03-29T05:02:33.908Z,1912.00
2023-03-29T05:03:33.857Z,1910.00
2023-03-29T05:04:33.906Z,1910.00
2023-03-29T05:05:33.866Z,1912.00
2023-03-29T05:06:33.849Z,1907.00
2023-03-29T05:07:33.863Z,1909.00
2023-03-29T05:08:33.853Z,1913.00
2023-03-29T05:09:35.582Z,1912.00
2023-03-29T05:10:33.850Z,1909.00
2023-03-29T05:11:33.843Z,1908.00
2023-03-29T05:12:33.848Z,1909.00
2023-03-29T05:13:33.823Z,1908.00
2023-03-29T05:14:33.840Z,1905.00
2023-03-29T05:15:33.828Z,1907.00
2023-03-29T05:16:33.862Z,1903.00
2023-03-29T05:17:33.900Z,1902.00
2023-03-29T05:18:33.839Z,1908.00
2023-03-29T05:19:33.825Z,1915.00
2023-03-29T05:20:33.843Z,1919.00
2023-03-29T05:21:33.845Z,1917.00
2023-03-29T05:22:33.832Z,1918.00
2023-03-29T05:23:33.824Z,1912.00
2023-03-29T05:24:33.827Z,1906.00
2023-03-29T05:25:33.835Z,1903.00
2023-03-29T05:26:33.807Z,1898.00
2023-03-29T05:27:33.817Z,1761.00
2023-03-29T05:28:33.870Z,1885.00
2023-03-29T05:29:33.813Z,1898.00
2023-03-29T05:30:33.839Z,1892.00
2023-03-29T05:31:33.859Z,1880.00
2023-03-29T05:32:33.824Z,1871.00
2023-03-29T05:33:33.857Z,1870.00
2023-03-29T05:34:33.836Z,1871.00
2023-03-29T05:35:33.904Z,1870.00
2023-03-29T05:36:33.820Z,1869.00
2023-03-29T05:37:33.805Z,1862.00
2023-03-29T05:38:33.818Z,1856.00
2023-03-29T05:39:35.735Z,1854.00
2023-03-29T05:40:33.872Z,1846.00
2023-03-29T05:41:33.754Z,1842.00
2023-03-29T05:42:33.722Z,1839.00
2023-03-29T05:43:33.718Z,1837.00
2023-03-29T05:44:33.682Z,1834.00
2023-03-29T05:45:34.699Z,1832.00
2023-03-29T05:46:34.591Z,1830.00
2023-03-29T05:47:33.647Z,1826.00
2023-03-29T05:48:33.596Z,1826.00
2023-03-29T05:49:33.577Z,1824.00
2023-03-29T05:50:33.553Z,1822.00
2023-03-29T05:51:33.531Z,1818.00
2023-03-29T05:52:33.509Z,1818.00
2023-03-29T05:53:33.485Z,1821.00
2023-03-29T05:54:33.468Z,1817.00
2023-03-29T05:55:33.453Z,1812.00
2023-03-29T05:56:33.428Z,1810.00
2023-03-29T05:57:33.418Z,1804.00
2023-03-29T05:58:33.394Z,1804.00
2023-03-29T05:59:33.381Z,1803.00
2023-03-29T06:00:33.355Z,1804.00
2023-03-29T06:01:33.352Z,1804.00
2023-03-29T06:02:33.414Z,1803.00
2023-03-29T06:03:33.389Z,1803.00
2023-03-29T06:04:33.362Z,1800.00
2023-03-29T06:05:33.265Z,1798.00
2023-03-29T06:06:33.256Z,1798.00
2023-03-29T06:07:33.222Z,1800.00
2023-03-29T06:08:34.094Z,1800.00
2023-03-29T06:09:33.176Z,1798.00
2023-03-29T06:10:33.205Z,1798.00
2023-03-29T06:11:33.143Z,1797.00
2023-03-29T06:12:33.111Z,1795.00
2023-03-29T06:13:33.091Z,1795.00
2023-03-29T06:14:33.070Z,1797.00
2023-03-29T06:15:33.063Z,1797.00
2023-03-29T06:16:33.055Z,1794.00
2023-03-29T06:17:33.039Z,1791.00
2023-03-29T06:18:32.986Z,1791.00
2023-03-29T06:19:32.961Z,1791.00
2023-03-29T06:20:32.975Z,1792.00
2023-03-29T06:21:32.954Z,1790.00
2023-03-29T06:22:32.953Z,1791.00
2023-03-29T06:23:32.920Z,1790.00
2023-03-29T06:24:32.900Z,1789.00
2023-03-29T06:25:32.881Z,1787.00
2023-03-29T06:26:32.880Z,1790.00
2023-03-29T06:27:32.854Z,1794.00
2023-03-29T06:28:32.844Z,1859.00
2023-03-29T06:29:32.815Z,1954.00
2023-03-29T06:30:32.819Z,1981.00
2023-03-29T06:31:32.847Z,2015.00
2023-03-29T06:32:32.808Z,2037.00
2023-03-29T06:33:32.776Z,2066.00
2023-03-29T06:34:32.736Z,2105.00
2023-03-29T06:35:33.637Z,2142.00
2023-03-29T06:36:32.692Z,2183.00
2023-03-29T06:37:34.642Z,2218.00
2023-03-29T06:38:33.652Z,2243.00
2023-03-29T06:39:33.617Z,2276.00
2023-03-29T06:40:35.121Z,2305.00
2023-03-29T06:41:32.716Z,2330.00
2023-03-29T06:42:32.749Z,2360.00
2023-03-29T06:43:33.305Z,2389.00
2023-03-29T06:44:32.805Z,2411.00
2023-03-29T06:45:32.855Z,2433.00
2023-03-29T06:46:32.917Z,2478.00
2023-03-29T06:47:32.954Z,2514.00
2023-03-29T06:48:32.904Z,2540.00
2023-03-29T06:49:32.930Z,2563.00
2023-03-29T06:50:32.957Z,2602.00
2023-03-29T06:51:32.928Z,2627.00
2023-03-29T06:52:32.890Z,2647.00
2023-03-29T06:53:35.627Z,2669.00
2023-03-29T06:54:32.806Z,2690.00
2023-03-29T06:55:32.763Z,2717.00
2023-03-29T06:56:32.858Z,2757.00
2023-03-29T06:57:32.693Z,2773.00
2023-03-29T06:58:32.662Z,2800.00
2023-03-29T06:59:32.628Z,2823.00
2023-03-29T07:00:32.705Z,2840.00
2023-03-29T07:01:32.599Z,2890.00
2023-03-29T07:02:32.528Z,2912.00
2023-03-29T07:03:32.481Z,2936.00
2023-03-29T07:04:32.522Z,2974.00
2023-03-29T07:05:33.125Z,3005.00
2023-03-29T07:06:32.582Z,3026.00
2023-03-29T07:07:33.543Z,3073.00
2023-03-29T07:08:32.560Z,3094.00
2023-03-29T07:09:32.539Z,3115.00
2023-03-29T07:10:32.884Z,3136.00
2023-03-29T07:11:32.526Z,3158.00
2023-03-29T07:12:32.544Z,3189.00
2023-03-29T07:13:32.546Z,3211.00
2023-03-29T07:14:32.541Z,3230.00
2023-03-29T07:15:32.557Z,3255.00
2023-03-29T07:16:32.694Z,3298.00
2023-03-29T07:17:32.617Z,3334.00
2023-03-29T07:18:32.563Z,3373.00
2023-03-29T07:19:32.544Z,3381.00
2023-03-29T07:20:32.549Z,3379.00
2023-03-29T07:21:34.440Z,3379.00
2023-03-29T07:22:32.555Z,3389.00
2023-03-29T07:23:32.489Z,3402.00
2023-03-29T07:24:32.600Z,3425.00
2023-03-29T07:25:32.396Z,3445.00
2023-03-29T07:26:32.341Z,3468.00
2023-03-29T07:27:32.322Z,3487.00
2023-03-29T07:28:33.292Z,3514.00
2023-03-29T07:29:32.263Z,3559.00
2023-03-29T07:30:32.753Z,3609.00
2023-03-29T07:31:32.134Z,3635.00
2023-03-29T07:32:32.170Z,3659.00
2023-03-29T07:33:32.132Z,3680.00
2023-03-29T07:34:32.008Z,3700.00
2023-03-29T07:35:32.012Z,3718.00
2023-03-29T07:36:31.920Z,3737.00
2023-03-29T07:37:33.628Z,3758.00
2023-03-29T07:38:31.827Z,3784.00
2023-03-29T07:39:31.781Z,3807.00
2023-03-29T07:40:31.762Z,3832.00
2023-03-29T07:41:31.710Z,3875.00
2023-03-29T07:42:31.665Z,3899.00
2023-03-29T07:43:31.643Z,3925.00
2023-03-29T07:44:32.555Z,3958.00
2023-03-29T07:45:31.546Z,3987.00
2023-03-29T07:46:31.503Z,4006.00
2023-03-29T07:47:31.553Z,4030.00
2023-03-29T07:48:31.412Z,4056.00
2023-03-29T07:49:31.363Z,4078.00
2023-03-29T07:50:31.331Z,4121.00
2023-03-29T07:51:31.305Z,4150.00
2023-03-29T07:52:31.257Z,4177.00
2023-03-29T07:53:31.211Z,4197.00
2023-03-29T07:54:31.194Z,4223.00
2023-03-29T07:55:31.139Z,4253.00
2023-03-29T07:56:31.097Z,4293.00
2023-03-29T07:57:31.108Z,4327.00
2023-03-29T07:58:31.632Z,4358.00
2023-03-29T07:59:30.975Z,4377.00
2023-03-29T08:00:30.953Z,4402.00
2023-03-29T08:01:30.957Z,4416.00
2023-03-29T08:02:30.922Z,4438.00
2023-03-29T08:03:30.865Z,4459.00
2023-03-29T08:04:31.749Z,4483.00
2023-03-29T08:05:40.709Z,4508.00
2023-03-29T08:06:31.670Z,4535.00
2023-03-29T08:07:30.641Z,4568.00
2023-03-29T08:08:30.599Z,4587.00
2023-03-29T08:09:33.145Z,4606.00
2023-03-29T08:10:31.141Z,4624.00
2023-03-29T08:11:30.461Z,4657.00
2023-03-29T08:12:31.147Z,4742.00
2023-03-29T08:13:30.383Z,4722.00
2023-03-29T08:14:30.349Z,4709.00
2023-03-29T08:15:30.338Z,4608.00
2023-03-29T08:16:30.321Z,3745.00
2023-03-29T08:17:30.224Z,3038.00
2023-03-29T08:18:32.760Z,3496.00
2023-03-29T08:19:30.148Z,3344.00
2023-03-29T08:20:30.107Z,3209.00
2023-03-29T08:21:30.079Z,2178.00
2023-03-29T08:22:31.644Z,1926.00
2023-03-29T08:23:29.996Z,2165.00
2023-03-29T08:24:29.966Z,1673.00
2023-03-29T08:25:29.937Z,1358.00
2023-03-29T08:26:40.900Z,1228.00
2023-03-29T08:27:29.899Z,1226.00
2023-03-29T08:28:32.190Z,1194.00
2023-03-29T08:29:29.883Z,1310.00
2023-03-29T08:30:30.648Z,1337.00
2023-03-29T08:31:29.924Z,1365.00
2023-03-29T08:32:29.937Z,1426.00
2023-03-29T08:33:29.890Z,1469.00
2023-03-29T08:34:29.870Z,1559.00
2023-03-29T08:35:29.874Z,1601.00
2023-03-29T08:36:31.153Z,1650.00
2023-03-29T08:37:29.792Z,1693.00
2023-03-29T08:38:29.763Z,1729.00
2023-03-29T08:39:29.756Z,1781.00
2023-03-29T08:40:29.702Z,1815.00
2023-03-29T08:41:29.692Z,1829.00
2023-03-29T08:42:29.628Z,1847.00
2023-03-29T08:43:29.606Z,1876.00
2023-03-29T08:44:30.159Z,1913.00
2023-03-29T08:45:29.527Z,1949.00
2023-03-29T08:47:29.502Z,2008.00
2023-03-29T08:48:30.084Z,2046.00
2023-03-29T08:49:29.461Z,2064.00
2023-03-29T08:50:29.452Z,2087.00
2023-03-29T08:51:29.463Z,2107.00
2023-03-29T08:52:29.451Z,2129.00
2023-03-29T08:53:29.447Z,2154.00
2023-03-29T08:54:29.415Z,2178.00
2023-03-29T08:55:29.415Z,2211.00
2023-03-29T08:56:30.768Z,2256.00
2023-03-29T08:57:29.367Z,2291.00
2023-03-29T08:58:29.326Z,2310.00
2023-03-29T08:59:29.282Z,2329.00
2023-03-29T09:00:29.233Z,2355.00
2023-03-29T09:01:29.208Z,2377.00
2023-03-29T09:02:29.329Z,2389.00
2023-03-29T09:03:29.728Z,2405.00
2023-03-29T09:04:30.116Z,2424.00
2023-03-29T09:05:29.061Z,2465.00
2023-03-29T09:06:29.015Z,2520.00
2023-03-29T09:07:29.668Z,2545.00
2023-03-29T09:08:28.937Z,2555.00
2023-03-29T09:09:28.903Z,2574.00
2023-03-29T09:10:28.887Z,2619.00
2023-03-29T09:11:28.852Z,2640.00
2023-03-29T09:12:28.840Z,2652.00
2023-03-29T09:13:29.179Z,1989.00
2023-03-29T09:14:28.826Z,2264.00
2023-03-29T09:15:28.794Z,2272.00
2023-03-29T09:16:28.828Z,2300.00
2023-03-29T09:17:28.801Z,2404.00
2023-03-29T09:18:28.771Z,2378.00
2023-03-29T09:19:28.791Z,2296.00
2023-03-29T09:20:28.821Z,2132.00
2023-03-29T09:21:28.839Z,2101.00
2023-03-29T09:22:28.855Z,2091.00
2023-03-29T09:23:28.889Z,2083.00
2023-03-29T09:24:28.910Z,2087.00
2023-03-29T09:25:28.933Z,2095.00
2023-03-29T09:26:28.941Z,2099.00
2023-03-29T09:27:28.995Z,2109.00
2023-03-29T09:28:28.982Z,2114.00
2023-03-29T09:29:28.960Z,2119.00
2023-03-29T09:30:28.921Z,2117.00
2023-03-29T09:31:28.934Z,2120.00
2023-03-29T09:32:28.888Z,2116.00
2023-03-29T09:33:28.816Z,2116.00
2023-03-29T09:34:28.770Z,2111.00
2023-03-29T09:35:28.822Z,2109.00
2023-03-29T09:36:28.711Z,2108.00
2023-03-29T09:37:28.672Z,2110.00
2023-03-29T09:38:28.670Z,2110.00
2023-03-29T09:39:28.620Z,2110.00
2023-03-29T09:40:28.579Z,2109.00
2023-03-29T09:41:28.613Z,2107.00
2023-03-29T09:42:28.617Z,2102.00
2023-03-29T09:43:28.631Z,2103.00
2023-03-29T09:44:31.150Z,2102.00
2023-03-29T09:45:28.636Z,2105.00
2023-03-29T09:46:28.598Z,2107.00
2023-03-29T09:47:28.666Z,2105.00
2023-03-29T09:48:28.515Z,2104.00
2023-03-29T09:49:29.174Z,2106.00
2023-03-29T09:50:32.031Z,2101.00
2023-03-29T09:51:28.415Z,2101.00
2023-03-29T09:52:28.370Z,2101.00
2023-03-29T09:53:28.377Z,2098.00
2023-03-29T09:54:28.299Z,2094.00
2023-03-29T09:55:28.289Z,2094.00
2023-03-29T09:56:28.238Z,2091.00
2023-03-29T09:57:28.252Z,2090.00
2023-03-29T09:58:28.164Z,2096.00
2023-03-29T09:59:28.124Z,2097.00
2023-03-29T10:00:28.153Z,2095.00
2023-03-29T10:01:28.107Z,2097.00
2023-03-29T10:02:28.023Z,2100.00
2023-03-29T10:03:27.972Z,2098.00
2023-03-29T10:04:27.959Z,2094.00
2023-03-29T10:05:27.887Z,2090.00
2023-03-29T10:06:27.848Z,2090.00
2023-03-29T10:07:27.820Z,2092.00
2023-03-29T10:08:27.782Z,2093.00
2023-03-29T10:09:27.749Z,2092.00
2023-03-29T10:10:27.710Z,2090.00
2023-03-29T10:11:27.665Z,2089.00
2023-03-29T10:12:27.640Z,2092.00
2023-03-29T10:13:27.601Z,2090.00
2023-03-29T10:14:27.569Z,2090.00
2023-03-29T10:15:30.100Z,2095.00
2023-03-29T10:16:27.557Z,2093.00
2023-03-29T10:17:27.476Z,2091.00
2023-03-29T10:18:27.425Z,2092.00
2023-03-29T10:19:27.399Z,2086.00
2023-03-29T10:20:27.356Z,2082.00
2023-03-29T10:21:27.316Z,2079.00
2023-03-29T10:22:27.340Z,2075.00
2023-03-29T10:23:27.254Z,2072.00
2023-03-29T10:24:27.228Z,2073.00
2023-03-29T10:25:27.186Z,2072.00
2023-03-29T10:26:27.173Z,2075.00
2023-03-29T10:27:27.205Z,2073.00
2023-03-29T10:28:27.309Z,2069.00
2023-03-29T10:29:27.266Z,2073.00
2023-03-29T10:30:27.291Z,2077.00
2023-03-29T10:31:27.390Z,2078.00
2023-03-29T10:32:27.382Z,2080.00
2023-03-29T10:34:27.394Z,2082.00
2023-03-29T10:35:27.423Z,2080.00
2023-03-29T10:36:27.445Z,2072.00
2023-03-29T10:37:27.471Z,2067.00
2023-03-29T10:38:27.501Z,2064.00
2023-03-29T10:39:27.566Z,2064.00
2023-03-29T10:40:27.573Z,2061.00
2023-03-29T10:41:27.611Z,2063.00
2023-03-29T10:42:27.637Z,2059.00
2023-03-29T10:43:27.653Z,2058.00
2023-03-29T10:44:27.684Z,2059.00
2023-03-29T10:45:27.688Z,2060.00
2023-03-29T10:46:27.743Z,2061.00
2023-03-29T10:47:27.736Z,2060.00
2023-03-29T10:48:27.743Z,2058.00
2023-03-29T10:49:27.778Z,2055.00
2023-03-29T10:50:27.788Z,2055.00
2023-03-29T10:51:27.874Z,2054.00
2023-03-29T10:52:27.842Z,2052.00
2023-03-29T10:53:27.866Z,2046.00
2023-03-29T10:54:28.609Z,2046.00
2023-03-29T10:55:27.928Z,2049.00
2023-03-29T10:56:27.970Z,2047.00
2023-03-29T10:57:28.006Z,2048.00
2023-03-29T10:58:28.012Z,2050.00
2023-03-29T10:59:28.041Z,2052.00
2023-03-29T11:00:28.073Z,2049.00
2023-03-29T11:01:28.127Z,2048.00
2023-03-29T11:02:28.160Z,2044.00
2023-03-29T11:03:28.284Z,2044.00
2023-03-29T11:04:28.136Z,2041.00
2023-03-29T11:05:28.165Z,2041.00
2023-03-29T11:06:28.195Z,2039.00
2023-03-29T11:07:28.197Z,2035.00
2023-03-29T11:08:30.479Z,2031.00
2023-03-29T11:09:28.174Z,2027.00
2023-03-29T11:10:28.152Z,2025.00
2023-03-29T11:11:28.113Z,2021.00
2023-03-29T11:12:28.090Z,2021.00
2023-03-29T11:13:28.065Z,2021.00
2023-03-29T11:14:28.032Z,2021.00
2023-03-29T11:15:28.113Z,2022.00
2023-03-29T11:16:28.267Z,2020.00
2023-03-29T11:17:27.963Z,2013.00
2023-03-29T11:18:27.948Z,2008.00
2023-03-29T11:19:27.893Z,2008.00
2023-03-29T11:20:27.873Z,2007.00
2023-03-29T11:21:27.854Z,2007.00
2023-03-29T11:22:27.876Z,2007.00
2023-03-29T11:23:27.884Z,2009.00
2023-03-29T11:24:27.886Z,2011.00
2023-03-29T11:25:29.606Z,2009.00
2023-03-29T11:26:27.889Z,2011.00
2023-03-29T11:27:27.905Z,2011.00
2023-03-29T11:28:27.944Z,2010.00
2023-03-29T11:29:27.933Z,2011.00
2023-03-29T11:30:28.037Z,2010.00
2023-03-29T11:31:28.035Z,2009.00
2023-03-29T11:32:27.998Z,2007.00
2023-03-29T11:33:27.990Z,2009.00
2023-03-29T11:34:27.967Z,2007.00
2023-03-29T11:35:27.961Z,2007.00
2023-03-29T11:36:27.977Z,2009.00
2023-03-29T11:37:27.964Z,2005.00
2023-03-29T11:38:27.957Z,2005.00
2023-03-29T11:39:27.936Z,2009.00
2023-03-29T11:40:27.954Z,2008.00
2023-03-29T11:41:27.948Z,2003.00
2023-03-29T11:42:27.924Z,1999.00
2023-03-29T11:43:27.910Z,1997.00
2023-03-29T11:44:27.896Z,1994.00
2023-03-29T11:45:28.658Z,1994.00
2023-03-29T11:46:27.875Z,1994.00
2023-03-29T11:47:27.877Z,1994.00
2023-03-29T11:48:27.855Z,1997.00
2023-03-29T11:49:27.843Z,1996.00
2023-03-29T11:50:27.816Z,1997.00
2023-03-29T11:51:27.808Z,1996.00
2023-03-29T11:52:27.791Z,1996.00
2023-03-29T11:53:27.784Z,1993.00
2023-03-29T11:54:27.768Z,1993.00
2023-03-29T11:55:28.216Z,1993.00
2023-03-29T11:56:27.735Z,1993.00
2023-03-29T11:57:27.742Z,1994.00
2023-03-29T11:58:27.705Z,1993.00
2023-03-29T11:59:27.705Z,1992.00
2023-03-29T12:00:27.693Z,1993.00
2023-03-29T12:01:27.683Z,1992.00
2023-03-29T12:02:27.729Z,1990.00
2023-03-29T12:03:27.754Z,1990.00
2023-03-29T12:04:27.708Z,1989.00
2023-03-29T12:05:27.649Z,1985.00
2023-03-29T12:06:27.626Z,1981.00
2023-03-29T12:07:27.666Z,1983.00